You must use a browser capable of displaying tables to view this page.

The table shows the data used to make the storm track maps. Click on the storm name in the first row to get a close up view of the storm track.

Name Date Time (UT) Lat (degrees) Lon (degrees) Course (true) Speed (knots) Pressure (mb) Wind (knots) Gusts (knots) Type Actual / Forecast WMO
MA-ON 2011-07-12 06:00 18.7N 155.5E 300 04 ??? 035 045 STO ACT WTPN31
MA-ON 2011-07-12 12:00 18.9N 154.4E 280 11 ??? 035 045 STO ACT WTPN31
MA-ON 2011-07-12 18:00 19.1N 153.6E 290 08 ??? 040 050 STO ACT WTPN31
MA-ON 2011-07-13 00:00 19.6N 152.8E 295 09 ??? 050 065 STO ACT WTPN31
MA-ON 2011-07-13 06:00 19.7N 151.4E 275 13 ??? 055 070 STO ACT WTPN31
MA-ON 2011-07-13 12:00 19.8N 150.3E 270 11 ??? 065 080 TYP ACT WTPN31
MA-ON 2011-07-13 18:00 19.9N 148.6E 275 16 ??? 080 100 TYP ACT WTPN31
MA-ON 2011-07-14 00:00 20.1N 147.0E 280 15 ??? 090 110 TYP ACT WTPN31
MA-ON 2011-07-14 06:00 20.1N 146.2E 270 08 ??? 090 110 TYP ACT WTPN31
MA-ON 2011-07-14 12:00 20.2N 145.1E 275 11 ??? 095 115 TYP ACT WTPN31
MA-ON 2011-07-14 18:00 20.3N 143.7E 275 12 ??? 100 125 TYP ACT WTPN31
MA-ON 2011-07-15 00:00 20.4N 142.5E 275 11 ??? 110 135 TYP ACT WTPN31
MA-ON 2011-07-15 06:00 20.6N 141.4E 280 10 ??? 115 140 TYP ACT WTPN31
MA-ON 2011-07-15 12:00 20.6N 140.4E 275 09 ??? 115 140 TYP ACT WTPN31
MA-ON 2011-07-15 18:00 20.8N 139.6E 275 09 ??? 105 130 TYP ACT WTPN31
MA-ON 2011-07-16 00:00 21.1N 138.7E 290 09 ??? 105 130 TYP ACT WTPN31
MA-ON 2011-07-16 06:00 21.2N 137.8E 275 08 ??? 110 135 TYP ACT WTPN31
MA-ON 2011-07-16 12:00 21.8N 137.1E 315 09 ??? 110 135 TYP ACT WTPN31
MA-ON 2011-07-16 18:00 22.7N 136.3E 315 11 ??? 110 135 TYP ACT WTPN31
MA-ON 2011-07-17 00:00 23.4N 135.6E 315 10 ??? 110 135 TYP ACT WTPN31
MA-ON 2011-07-17 06:00 24.4N 134.6E 320 14 ??? 105 130 TYP ACT WTPN31
MA-ON 2011-07-17 12:00 25.2N 133.8E 320 11 ??? 100 125 TYP ACT WTPN31
MA-ON 2011-07-17 18:00 26.0N 133.4E 335 09 ??? 090 110 TYP ACT WTPN31
MA-ON 2011-07-18 00:00 27.0N 133.2E 350 10 ??? 085 105 TYP ACT WTPN31
MA-ON 2011-07-18 06:00 28.3N 133.2E 010 10 ??? 085 105 TYP ACT WTPN31
MA-ON 2011-07-18 12:00 29.7N 133.0E 355 14 ??? 075 090 TYP ACT WTPN31
MA-ON 2011-07-18 18:00 30.8N 132.8E 350 11 ??? 075 090 TYP ACT WTPN31
MA-ON 2011-07-19 00:00 31.9N 132.9E 005 11 ??? 070 085 TYP ACT WTPN31
MA-ON 2011-07-19 06:00 32.7N 133.3E 025 09 ??? 065 080 TYP ACT WTPN31
MA-ON 2011-07-19 12:00 33.3N 134.2E 050 10 ??? 055 070 STO ACT WTPN31
MA-ON 2011-07-19 18:00 33.6N 134.8E 060 06 ??? 065 080 TYP ACT WTPN31
MA-ON 2011-07-20 00:00 33.6N 135.6E 090 07 ??? 060 075 STO ACT WTPN31
MA-ON 2011-07-20 06:00 33.6N 137.0E 090 12 ??? 055 070 STO ACT WTPN31
MA-ON 2011-07-20 12:00 33.2N 138.0E 115 09 ??? 055 070 STO ACT WTPN31
MA-ON 2011-07-20 18:00 32.4N 138.7E 135 10 ??? 045 055 STO ACT WTPN31
MA-ON 2011-07-21 00:00 31.2N 139.4E 145 12 ??? 035 045 STO ACT WTPN31
MA-ON 2011-07-21 06:00 30.4N 140.8E 125 14 ??? 030 040 DEP ACT WTPN31
MA-ON 2011-07-21 12:00 30.4N 141.8E 090 09 ??? 030 040 DEP ACT WTPN31
MA-ON 2011-07-21 18:00 30.1N 142.0E 105 04 ??? 030 040 DEP ACT WTPN31
MA-ON 2011-07-22 00:00 28.9N 142.7E 145 11 ??? 020 030 DEP ACT WTPN31
MA-ON 2011-07-22 12:00 29.5N 143.9E ??? ??? ??? 020 030 ??? FOR WTPN31
MA-ON 2011-07-23 00:00 31.0N 145.1E ??? ??? ??? 020 030 ??? FOR WTPN31


Home Back

metcalf@akala.ifa.hawaii.edu